Time;durP1;ratioP1;P1;durP2;ratioP2;P2;SDS_P1;SDS_P2;PMS_P1;PMS_P2;Temp;Humidity;BMP_temperature;BMP_pressure;BME280_temperature;BME280_humidity;BME280_pressure;Samples;Min_cycle;Max_cycle;Signal;HPM_P1;HPM_P2
2024/04/17 00:01:11;;;;;;;4.67;1.17;;;13.20;89.50;;;;;;5554926;25;20495;-46
2024/04/17 00:03:38;;;;;;;1.03;0.63;;;13.20;89.50;;;;;;5560384;25;20454;-48
2024/04/17 00:06:09;;;;;;;1.47;0.70;;;13.20;89.50;;;;;;5560205;25;20492;-46
2024/04/17 00:08:36;;;;;;;2.03;1.10;;;13.20;89.40;;;;;;5564062;25;20460;-48
2024/04/17 00:11:06;;;;;;;1.63;0.87;;;13.20;89.50;;;;;;5560259;25;20458;-48
2024/04/17 00:13:36;;;;;;;1.57;0.90;;;13.20;89.40;;;;;;5553098;25;20569;-46
2024/04/17 00:16:09;;;;;;;2.33;1.20;;;13.20;89.50;;;;;;5554072;25;20519;-48
2024/04/17 00:18:36;;;;;;;3.67;1.10;;;13.20;89.40;;;;;;5561721;25;20457;-45
2024/04/17 00:21:06;;;;;;;1.47;1.00;;;13.20;89.50;;;;;;5565386;25;20455;-47
2024/04/17 00:23:33;;;;;;;4.03;1.20;;;13.20;89.50;;;;;;5555744;25;20454;-48
2024/04/17 00:26:03;;;;;;;1.73;1.07;;;13.10;89.60;;;;;;5570608;25;20903;-46
2024/04/17 00:28:33;;;;;;;1.30;0.90;;;13.20;89.40;;;;;;5551740;25;20468;-47
2024/04/17 00:31:03;;;;;;;2.20;1.30;;;13.10;89.60;;;;;;5553309;25;20466;-45
2024/04/17 00:33:33;;;;;;;1.30;0.80;;;13.20;89.60;;;;;;5555223;25;20459;-48
2024/04/17 00:36:00;;;;;;;1.60;1.10;;;13.10;89.60;;;;;;5561327;25;20560;-48
2024/04/17 00:38:30;;;;;;;1.77;0.90;;;13.10;89.40;;;;;;5560010;25;20462;-49
2024/04/17 00:40:58;;;;;;;2.13;0.90;;;13.10;89.50;;;;;;5551204;25;20443;-47
2024/04/17 00:43:29;;;;;;;1.53;0.70;;;13.10;89.60;;;;;;5556685;25;20840;-47
2024/04/17 00:45:57;;;;;;;1.43;1.00;;;13.10;89.40;;;;;;5518760;25;20503;-47
2024/04/17 00:48:30;;;;;;;1.10;0.70;;;13.10;89.60;;;;;;5559554;25;20519;-47
2024/04/17 00:50:57;;;;;;;2.10;0.90;;;13.10;89.50;;;;;;5556338;25;21127;-49
2024/04/17 00:53:29;;;;;;;2.70;0.93;;;13.10;89.50;;;;;;5546509;25;20465;-47
2024/04/17 00:55:57;;;;;;;1.80;1.40;;;13.10;89.60;;;;;;5551837;25;20518;-48
2024/04/17 00:58:27;;;;;;;1.83;1.03;;;13.10;89.50;;;;;;5557787;25;20468;-48
2024/04/17 01:00:54;;;;;;;1.40;1.10;;;13.10;89.60;;;;;;5553545;25;20466;-48
2024/04/17 01:03:25;;;;;;;1.40;1.13;;;13.10;89.40;;;;;;5560323;25;20451;-49
2024/04/17 01:05:55;;;;;;;1.20;1.00;;;13.10;89.60;;;;;;5560093;25;20866;-47
2024/04/17 01:08:24;;;;;;;2.10;1.00;;;13.10;89.70;;;;;;5553744;25;20825;-46
2024/04/17 01:10:58;;;;;;;1.90;0.83;;;13.10;89.80;;;;;;5554580;25;20511;-47
2024/04/17 01:13:28;;;;;;;1.00;0.70;;;13.10;89.80;;;;;;5553637;25;20511;-45
2024/04/17 01:15:56;;;;;;;1.30;0.83;;;13.10;89.80;;;;;;5552536;25;20812;-47
2024/04/17 01:18:26;;;;;;;2.00;1.10;;;13.10;89.60;;;;;;5560100;25;20560;-45
2024/04/17 01:20:56;;;;;;;1.17;0.70;;;13.10;90.30;;;;;;5559032;25;20470;-46
2024/04/17 01:23:26;;;;;;;1.53;0.93;;;13.10;90.50;;;;;;5540104;25;20455;-46
2024/04/17 01:25:56;;;;;;;1.10;0.73;;;13.10;89.70;;;;;;5552034;25;20463;-47
2024/04/17 01:28:26;;;;;;;1.50;0.90;;;13.00;89.60;;;;;;5553736;25;20503;-46
2024/04/17 01:30:53;;;;;;;1.43;0.97;;;13.00;89.50;;;;;;5545595;25;20576;-48
2024/04/17 01:33:23;;;;;;;1.50;0.90;;;13.00;89.60;;;;;;5563426;25;20454;-47
2024/04/17 01:35:50;;;;;;;1.43;1.00;;;13.00;89.50;;;;;;5556277;25;20450;-48
2024/04/17 01:38:20;;;;;;;1.43;0.90;;;13.00;89.70;;;;;;5547653;25;20507;-45
2024/04/17 01:40:47;;;;;;;1.30;1.00;;;13.00;89.40;;;;;;5555909;25;21114;-46
2024/04/17 01:43:20;;;;;;;1.67;1.10;;;13.00;89.60;;;;;;5556411;25;20541;-49
2024/04/17 01:45:47;;;;;;;2.03;0.83;;;13.00;89.80;;;;;;5544210;25;20504;-46
2024/04/17 01:48:17;;;;;;;1.50;0.87;;;13.00;89.50;;;;;;5557416;25;20450;-47
2024/04/17 01:50:44;;;;;;;1.40;0.90;;;13.00;89.70;;;;;;5551941;25;20462;-50
2024/04/17 01:53:14;;;;;;;1.40;1.30;;;13.00;90.00;;;;;;5558148;25;20804;-45
2024/04/17 01:55:41;;;;;;;1.60;1.20;;;13.00;90.20;;;;;;5559626;25;20470;-48
2024/04/17 01:58:12;;;;;;;1.20;0.90;;;13.00;90.20;;;;;;5560649;25;20439;-50
2024/04/17 02:00:42;;;;;;;1.83;1.27;;;13.00;90.40;;;;;;5554241;25;20516;-46
2024/04/17 02:03:12;;;;;;;1.10;0.83;;;13.00;90.00;;;;;;5509084;25;21123;-46
2024/04/17 02:05:39;;;;;;;3.50;1.10;;;13.00;90.30;;;;;;5562054;25;20511;-46
2024/04/17 02:08:10;;;;;;;3.20;1.10;;;12.90;90.60;;;;;;5523559;25;20518;-46
2024/04/17 02:10:37;;;;;;;1.50;0.93;;;12.90;90.70;;;;;;5544893;25;20462;-47
2024/04/17 02:13:07;;;;;;;1.83;1.20;;;12.90;90.90;;;;;;5561228;25;20502;-46
2024/04/17 02:15:34;;;;;;;1.00;0.63;;;12.90;91.00;;;;;;5549351;25;20458;-45
2024/04/17 02:18:07;;;;;;;4.33;1.60;;;12.90;91.00;;;;;;5561477;25;20791;-46
2024/04/17 02:20:35;;;;;;;3.93;1.13;;;12.90;91.00;;;;;;5562607;25;20515;-48
2024/04/17 02:23:04;;;;;;;2.63;1.00;;;12.90;91.40;;;;;;5555550;25;20447;-47
2024/04/17 02:25:32;;;;;;;1.70;1.00;;;12.90;91.60;;;;;;5542784;25;20974;-46
2024/04/17 02:28:02;;;;;;;2.47;1.20;;;13.00;92.10;;;;;;5562941;25;20502;-49
2024/04/17 02:30:29;;;;;;;2.73;1.17;;;12.90;92.20;;;;;;5545502;25;20837;-48
2024/04/17 02:32:59;;;;;;;2.27;1.10;;;12.90;92.70;;;;;;5511838;25;20460;-46
2024/04/17 02:35:29;;;;;;;3.63;1.30;;;12.90;93.70;;;;;;5573094;25;20580;-46
2024/04/17 02:37:58;;;;;;;1.83;1.17;;;12.90;90.50;;;;;;5556985;25;20452;-46
2024/04/17 02:40:26;;;;;;;1.50;1.20;;;12.90;89.60;;;;;;5551904;25;20840;-47
2024/04/17 02:42:55;;;;;;;2.13;1.00;;;12.90;90.10;;;;;;5561708;25;20523;-46
2024/04/17 02:45:23;;;;;;;2.30;1.00;;;12.90;90.30;;;;;;5554457;25;20571;-47
2024/04/17 02:47:53;;;;;;;1.47;1.37;;;12.90;90.90;;;;;;5569164;25;20452;-46
2024/04/17 02:50:20;;;;;;;1.73;0.90;;;12.90;90.60;;;;;;5552056;25;20599;-46
2024/04/17 02:52:52;;;;;;;2.03;1.17;;;12.90;91.30;;;;;;5561933;25;20551;-47
2024/04/17 02:55:20;;;;;;;1.30;0.80;;;12.90;92.00;;;;;;5561679;25;20821;-48
2024/04/17 02:57:49;;;;;;;1.90;1.27;;;12.90;92.70;;;;;;5561453;25;21008;-48
2024/04/17 03:00:17;;;;;;;2.60;1.60;;;12.90;94.70;;;;;;5551327;25;20471;-47
2024/04/17 03:02:47;;;;;;;1.47;1.10;;;12.80;90.70;;;;;;5515662;25;20455;-46
2024/04/17 03:05:15;;;;;;;3.13;1.10;;;12.80;90.70;;;;;;5548169;25;20516;-46
2024/04/17 03:07:46;;;;;;;3.47;1.30;;;12.80;90.70;;;;;;5563962;25;20513;-47
2024/04/17 03:10:16;;;;;;;2.80;1.80;;;12.80;90.80;;;;;;5509195;25;20513;-47
2024/04/17 03:12:45;;;;;;;1.83;0.97;;;12.80;90.90;;;;;;5518520;26;20577;-48
2024/04/17 03:15:13;;;;;;;2.57;1.40;;;12.80;91.20;;;;;;5554759;25;20498;-47
2024/04/17 03:17:43;;;;;;;1.80;1.10;;;12.80;91.30;;;;;;5562717;25;21023;-49
2024/04/17 03:20:10;;;;;;;2.90;1.10;;;12.80;91.60;;;;;;5567540;25;20464;-50
2024/04/17 03:22:40;;;;;;;2.17;1.30;;;12.80;92.10;;;;;;5555830;25;20902;-47
2024/04/17 03:25:07;;;;;;;2.40;1.30;;;12.80;92.00;;;;;;5562450;25;20561;-48
2024/04/17 03:27:39;;;;;;;2.47;1.43;;;12.80;92.10;;;;;;5549718;25;20559;-48
2024/04/17 03:30:08;;;;;;;2.00;1.10;;;12.80;92.20;;;;;;5547540;25;20894;-47
2024/04/17 03:32:38;;;;;;;2.67;1.10;;;12.80;92.30;;;;;;5560958;25;20467;-47
2024/04/17 03:35:07;;;;;;;1.70;1.07;;;12.90;92.50;;;;;;5561124;25;20459;-47
2024/04/17 03:37:37;;;;;;;1.63;1.37;;;12.80;92.90;;;;;;5548936;25;20458;-47
2024/04/17 03:40:08;;;;;;;2.30;1.40;;;12.80;89.60;;;;;;5549236;25;20467;-47
2024/04/17 03:42:41;;;;;;;1.93;1.30;;;12.80;90.00;;;;;;5552886;25;20561;-47
2024/04/17 03:45:10;;;;;;;1.33;1.07;;;12.80;90.30;;;;;;5548438;25;20552;-52
2024/04/17 03:47:41;;;;;;;2.57;1.17;;;12.80;90.40;;;;;;5561708;25;20523;-47
2024/04/17 03:50:08;;;;;;;2.40;1.10;;;12.80;90.50;;;;;;5558254;25;20471;-49
2024/04/17 03:52:38;;;;;;;2.93;1.37;;;12.70;90.70;;;;;;5548828;25;21098;-47
2024/04/17 03:55:05;;;;;;;1.87;1.23;;;12.70;90.90;;;;;;5561499;25;20459;-47
2024/04/17 03:57:35;;;;;;;1.73;0.93;;;12.70;91.40;;;;;;5548623;25;20451;-49
2024/04/17 04:00:06;;;;;;;2.80;1.30;;;12.80;91.90;;;;;;5559292;25;20646;-45
2024/04/17 04:02:37;;;;;;;2.07;1.13;;;12.70;90.90;;;;;;5551380;25;20470;-47
2024/04/17 04:05:04;;;;;;;4.23;1.30;;;12.70;91.80;;;;;;5558429;25;20521;-47
2024/04/17 04:07:35;;;;;;;1.40;1.10;;;12.80;95.50;;;;;;5554405;25;20530;-47
2024/04/17 04:10:02;;;;;;;3.40;1.13;;;12.80;89.50;;;;;;5557600;25;20533;-47
2024/04/17 04:12:32;;;;;;;3.20;1.00;;;12.70;89.50;;;;;;5560275;25;20883;-49
2024/04/17 04:14:59;;;;;;;1.93;1.00;;;12.70;90.60;;;;;;5543787;25;20462;-48
2024/04/17 04:17:31;;;;;;;2.13;1.20;;;12.70;89.50;;;;;;5565424;25;20490;-46
2024/04/17 04:19:59;;;;;;;2.30;1.00;;;12.70;89.60;;;;;;5567152;25;20529;-49
2024/04/17 04:22:29;;;;;;;3.07;1.20;;;12.70;90.20;;;;;;5559400;25;21003;-48
2024/04/17 04:24:56;;;;;;;2.37;1.20;;;12.70;89.50;;;;;;5554828;25;20470;-48
2024/04/17 04:27:26;;;;;;;2.40;1.20;;;12.70;89.50;;;;;;5558456;25;20454;-49
2024/04/17 04:29:53;;;;;;;1.60;0.93;;;12.70;89.40;;;;;;5556502;25;20917;-49
2024/04/17 04:32:23;;;;;;;1.57;0.90;;;12.70;89.40;;;;;;5554038;25;20544;-46
2024/04/17 04:34:53;;;;;;;1.60;1.10;;;12.70;89.40;;;;;;5553970;25;20522;-47
2024/04/17 04:37:24;;;;;;;3.70;1.03;;;12.70;89.30;;;;;;5560191;25;20864;-48
2024/04/17 04:39:51;;;;;;;2.20;1.47;;;12.70;89.40;;;;;;5560448;25;20999;-48
2024/04/17 04:42:22;;;;;;;2.00;1.43;;;12.70;89.40;;;;;;5566145;25;20451;-46
2024/04/17 04:44:49;;;;;;;1.83;1.27;;;12.60;89.30;;;;;;5553065;25;20574;-47
2024/04/17 04:47:19;;;;;;;1.63;1.00;;;12.70;89.40;;;;;;5559812;25;20458;-47
2024/04/17 04:49:46;;;;;;;2.13;1.23;;;12.60;89.50;;;;;;5565090;25;20569;-48
2024/04/17 04:52:19;;;;;;;1.93;1.03;;;12.60;89.40;;;;;;5556299;25;20454;-48
2024/04/17 04:54:46;;;;;;;2.70;1.73;;;12.60;89.40;;;;;;5557916;25;20439;-47
2024/04/17 04:57:19;;;;;;;4.17;1.00;;;12.60;89.30;;;;;;5560360;25;20575;-46
2024/04/17 04:59:46;;;;;;;2.23;1.30;;;12.60;89.20;;;;;;5550011;25;20448;-46
2024/04/17 05:02:16;;;;;;;1.43;1.03;;;12.60;89.30;;;;;;5556140;25;20503;-48
2024/04/17 05:04:44;;;;;;;3.27;1.53;;;12.60;89.50;;;;;;5559697;25;20991;-47
2024/04/17 05:07:15;;;;;;;1.80;1.37;;;12.60;89.40;;;;;;5559987;25;20514;-47
2024/04/17 05:09:44;;;;;;;1.97;1.30;;;12.60;89.50;;;;;;5551489;25;20514;-48
2024/04/17 05:12:15;;;;;;;2.17;1.23;;;12.60;89.80;;;;;;5556096;25;21016;-47
2024/04/17 05:14:42;;;;;;;2.30;1.40;;;12.60;89.60;;;;;;5524764;25;20523;-47
2024/04/17 05:17:12;;;;;;;3.60;1.73;;;12.60;90.00;;;;;;5558821;25;20873;-47
2024/04/17 05:19:39;;;;;;;1.97;1.10;;;12.60;90.40;;;;;;5558913;25;20502;-47
2024/04/17 05:22:09;;;;;;;2.00;0.90;;;12.60;90.40;;;;;;5556977;25;20450;-47
2024/04/17 05:24:36;;;;;;;3.27;1.30;;;12.60;90.70;;;;;;5555190;25;20461;-47
2024/04/17 05:27:10;;;;;;;1.80;1.47;;;12.50;91.20;;;;;;5554053;25;20511;-47
2024/04/17 05:29:37;;;;;;;2.80;1.97;;;12.60;91.70;;;;;;5558598;25;20474;-48
2024/04/17 05:32:07;;;;;;;2.23;1.30;;;12.60;92.20;;;;;;5560327;25;20471;-48
2024/04/17 05:34:35;;;;;;;3.53;1.77;;;12.60;95.40;;;;;;5553487;25;20458;-46
2024/04/17 05:37:05;;;;;;;3.13;1.37;;;12.60;93.80;;;;;;5554239;25;20451;-47
2024/04/17 05:39:32;;;;;;;4.20;1.73;;;12.60;94.30;;;;;;5560398;25;20450;-48
2024/04/17 05:42:02;;;;;;;3.17;1.73;;;12.60;94.40;;;;;;5556264;25;20518;-47
2024/04/17 05:44:32;;;;;;;2.63;1.40;;;12.60;94.90;;;;;;5555044;25;20559;-47
2024/04/17 05:47:02;;;;;;;2.93;2.37;;;12.60;95.90;;;;;;5559597;25;20880;-48
2024/04/17 05:49:29;;;;;;;1.60;1.20;;;12.60;96.30;;;;;;5557289;25;20446;-47
2024/04/17 05:51:59;;;;;;;3.37;1.80;;;12.60;97.80;;;;;;5558177;25;20454;-48
2024/04/17 05:54:26;;;;;;;2.20;1.50;;;12.50;90.80;;;;;;5552071;25;20462;-48
2024/04/17 05:56:56;;;;;;;3.63;1.30;;;12.50;90.80;;;;;;5548593;25;20569;-48
2024/04/17 05:59:24;;;;;;;5.63;2.53;;;12.50;91.30;;;;;;5518205;25;20510;-46
2024/04/17 06:01:57;;;;;;;2.73;1.87;;;12.50;91.80;;;;;;5557094;25;20591;-47
2024/04/17 06:04:24;;;;;;;2.50;1.77;;;12.60;92.10;;;;;;5555854;25;20525;-46
2024/04/17 06:06:54;;;;;;;3.73;1.77;;;12.50;92.70;;;;;;5563618;25;20672;-49
2024/04/17 06:09:21;;;;;;;2.33;1.40;;;12.50;93.00;;;;;;5578516;25;20455;-47
2024/04/17 06:11:51;;;;;;;3.50;2.70;;;12.50;93.20;;;;;;5556670;25;20454;-46
2024/04/17 06:14:18;;;;;;;2.90;1.90;;;12.50;93.20;;;;;;5541359;25;20517;-47
2024/04/17 06:16:48;;;;;;;3.80;2.90;;;12.50;93.30;;;;;;5558950;25;20459;-47
2024/04/17 06:19:18;;;;;;;3.13;1.97;;;12.50;93.50;;;;;;5559021;25;20514;-46
2024/04/17 06:21:48;;;;;;;3.77;2.20;;;12.50;93.80;;;;;;5554603;25;20525;-47
2024/04/17 06:24:15;;;;;;;2.70;1.77;;;12.50;94.40;;;;;;5558389;25;20458;-47
2024/04/17 06:26:45;;;;;;;3.03;2.33;;;12.50;95.00;;;;;;5558471;25;20458;-46
2024/04/17 06:29:12;;;;;;;4.30;2.00;;;12.50;95.20;;;;;;5543138;25;20575;-46
2024/04/17 06:31:42;;;;;;;2.93;2.07;;;12.50;96.40;;;;;;5557242;25;20462;-47
2024/04/17 06:34:10;;;;;;;2.80;2.17;;;12.50;95.80;;;;;;5556089;25;20446;-46
2024/04/17 06:36:42;;;;;;;1.70;1.33;;;12.50;96.10;;;;;;5558492;25;20911;-46
2024/04/17 06:39:09;;;;;;;3.00;1.50;;;12.50;96.40;;;;;;5552223;25;20462;-47
2024/04/17 06:41:39;;;;;;;2.27;1.53;;;12.40;97.20;;;;;;5547972;25;20455;-47
2024/04/17 06:44:23;;;;;;;2.60;1.53;;;12.50;94.80;;;;;;5554982;25;20454;-47
2024/04/17 06:46:53;;;;;;;1.90;1.60;;;12.50;94.60;;;;;;5561774;25;20792;-47
2024/04/17 06:49:20;;;;;;;2.07;1.57;;;12.50;94.80;;;;;;5562271;25;20502;-47
2024/04/17 06:51:53;;;;;;;2.30;1.33;;;12.50;94.80;;;;;;5556507;25;20508;-47
2024/04/17 06:54:20;;;;;;;1.70;1.37;;;12.40;95.00;;;;;;5562589;25;20454;-46
2024/04/17 06:56:50;;;;;;;1.80;1.40;;;12.50;94.80;;;;;;5563406;25;20443;-47
2024/04/17 06:59:17;;;;;;;2.77;1.77;;;12.40;95.30;;;;;;5548754;25;20501;-47
2024/04/17 07:01:47;;;;;;;4.13;1.60;;;12.40;95.10;;;;;;5558584;25;20466;-47
2024/04/17 07:04:14;;;;;;;2.27;1.80;;;12.40;95.20;;;;;;5506937;25;20467;-47
2024/04/17 07:06:44;;;;;;;2.40;1.57;;;12.40;94.80;;;;;;5557381;25;20458;-47
2024/04/17 07:09:14;;;;;;;3.17;1.73;;;12.40;94.60;;;;;;5551468;25;20572;-47
2024/04/17 07:11:44;;;;;;;3.23;2.00;;;12.40;94.90;;;;;;5569467;25;20446;-47
2024/04/17 07:14:11;;;;;;;2.93;2.10;;;12.40;94.70;;;;;;5548709;25;20480;-46
2024/04/17 07:16:41;;;;;;;2.70;1.73;;;12.40;94.50;;;;;;5562982;25;20439;-47
2024/04/17 07:19:08;;;;;;;1.93;1.50;;;12.40;94.50;;;;;;5570623;25;21069;-47
2024/04/17 07:21:38;;;;;;;2.50;1.83;;;12.40;94.00;;;;;;5560893;25;20847;-47
2024/04/17 07:24:05;;;;;;;3.03;1.60;;;12.40;93.90;;;;;;5559402;25;21074;-46
2024/04/17 07:26:38;;;;;;;1.70;1.60;;;12.40;93.70;;;;;;5561973;25;20466;-47
2024/04/17 07:29:05;;;;;;;2.33;1.83;;;12.40;93.40;;;;;;5549044;25;20546;-47
2024/04/17 07:31:35;;;;;;;2.77;1.67;;;12.30;90.30;;;;;;5560788;25;20501;-47
2024/04/17 07:34:02;;;;;;;2.00;1.40;;;12.30;90.30;;;;;;5560050;25;20557;-47
2024/04/17 07:36:32;;;;;;;2.00;1.60;;;12.40;90.40;;;;;;5560019;25;20499;-47
2024/04/17 07:38:59;;;;;;;2.30;1.50;;;12.30;90.50;;;;;;5561517;25;20463;-46
2024/04/17 07:41:29;;;;;;;2.70;1.60;;;12.30;90.50;;;;;;5560586;25;20547;-48
2024/04/17 07:43:59;;;;;;;1.30;1.20;;;12.30;91.00;;;;;;5548135;25;21030;-48
2024/04/17 07:46:30;;;;;;;1.83;1.20;;;12.30;91.10;;;;;;5562039;25;20498;-48
2024/04/17 07:48:57;;;;;;;2.47;1.40;;;12.30;91.20;;;;;;5559229;25;21163;-47
2024/04/17 07:51:27;;;;;;;1.57;1.17;;;12.30;91.50;;;;;;5555875;25;20523;-47
2024/04/17 07:53:54;;;;;;;3.53;1.63;;;12.30;91.40;;;;;;5559906;25;20564;-47
2024/04/17 07:56:24;;;;;;;1.77;1.33;;;12.40;91.70;;;;;;5561202;25;20509;-49
2024/04/17 07:58:51;;;;;;;2.03;1.37;;;12.30;92.10;;;;;;5549900;25;20571;-48
2024/04/17 08:01:23;;;;;;;1.60;1.30;;;12.40;92.00;;;;;;5551024;25;21112;-47
2024/04/17 08:03:50;;;;;;;1.80;1.33;;;12.30;93.10;;;;;;5570841;25;20506;-48
2024/04/17 08:06:21;;;;;;;1.70;1.20;;;12.30;93.00;;;;;;5558170;25;21305;-47
2024/04/17 08:08:48;;;;;;;2.30;1.40;;;12.30;92.90;;;;;;5561674;25;20458;-47
2024/04/17 08:11:19;;;;;;;1.40;0.90;;;12.30;94.30;;;;;;5559782;25;20539;-48
2024/04/17 08:13:51;;;;;;;2.13;1.17;;;12.30;93.70;;;;;;5553483;25;20528;-47
2024/04/17 08:16:24;;;;;;;1.60;1.30;;;12.30;93.70;;;;;;5559373;25;20462;-48
2024/04/17 08:18:51;;;;;;;1.90;1.50;;;12.30;93.60;;;;;;5561223;25;20506;-47
2024/04/17 08:21:21;;;;;;;2.17;1.47;;;12.30;94.10;;;;;;5560902;25;21174;-46
2024/04/17 08:23:49;;;;;;;1.93;1.50;;;12.30;94.90;;;;;;5553181;25;20472;-47
2024/04/17 08:26:19;;;;;;;1.70;1.33;;;12.30;93.90;;;;;;5560440;25;20454;-48
2024/04/17 08:28:46;;;;;;;1.50;1.30;;;12.30;94.00;;;;;;5550563;25;20620;-48
2024/04/17 08:31:16;;;;;;;1.40;1.27;;;12.30;93.90;;;;;;5562752;25;20514;-48
2024/04/17 08:33:46;;;;;;;2.03;1.20;;;12.30;93.60;;;;;;5547843;25;20453;-49
2024/04/17 08:36:16;;;;;;;2.03;1.07;;;12.30;93.30;;;;;;5559087;25;20462;-47
2024/04/17 08:38:43;;;;;;;1.40;1.10;;;12.30;93.70;;;;;;5569792;25;20446;-46
2024/04/17 08:41:13;;;;;;;2.00;1.20;;;12.30;93.40;;;;;;5556645;25;20455;-47
2024/04/17 08:43:43;;;;;;;1.70;1.30;;;12.30;93.10;;;;;;5506598;25;20460;-47
2024/04/17 08:46:16;;;;;;;2.13;1.00;;;12.30;93.40;;;;;;5558576;25;20443;-48
2024/04/17 08:48:46;;;;;;;1.20;0.97;;;12.30;93.80;;;;;;5561031;25;21130;-46
2024/04/17 08:51:18;;;;;;;3.57;1.47;;;12.30;94.30;;;;;;5560370;25;20584;-46
2024/04/17 08:53:46;;;;;;;2.07;1.40;;;12.30;93.10;;;;;;5556678;25;20618;-50
2024/04/17 08:56:17;;;;;;;1.97;1.50;;;12.20;89.30;;;;;;5559564;25;20491;-44
2024/04/17 08:58:45;;;;;;;2.70;1.30;;;12.20;88.90;;;;;;5551235;25;20448;-48
2024/04/17 09:01:19;;;;;;;2.43;1.23;;;12.20;89.30;;;;;;5526509;25;20466;-46
2024/04/17 09:03:50;;;;;;;2.00;1.70;;;12.30;90.00;;;;;;5551334;25;20564;-45
2024/04/17 09:06:21;;;;;;;3.23;1.50;;;12.30;90.40;;;;;;5558982;25;20461;-50
2024/04/17 09:08:49;;;;;;;1.60;1.40;;;12.30;90.40;;;;;;5552639;25;20511;-46
2024/04/17 09:11:21;;;;;;;2.53;1.50;;;12.20;90.40;;;;;;5558782;25;20816;-45
2024/04/17 09:13:48;;;;;;;1.77;1.20;;;12.20;90.80;;;;;;5545378;25;21083;-47
2024/04/17 09:16:18;;;;;;;4.43;1.57;;;12.20;90.20;;;;;;5557735;25;20470;-45
2024/04/17 09:18:47;;;;;;;4.03;1.30;;;12.20;90.40;;;;;;5559971;25;20459;-46
2024/04/17 09:21:20;;;;;;;2.30;1.80;;;12.20;91.40;;;;;;5555859;25;20520;-46
2024/04/17 09:23:47;;;;;;;2.17;1.20;;;12.20;91.40;;;;;;5515212;26;20453;-46
2024/04/17 09:26:18;;;;;;;1.60;1.20;;;12.20;91.90;;;;;;5558637;25;21031;-47
2024/04/17 09:28:49;;;;;;;1.60;1.43;;;12.20;92.20;;;;;;5549903;25;20458;-48
2024/04/17 09:31:19;;;;;;;2.23;1.20;;;12.30;93.10;;;;;;5557140;25;20463;-46
2024/04/17 09:33:47;;;;;;;1.80;1.43;;;12.20;94.30;;;;;;5559454;25;20507;-47
2024/04/17 09:36:20;;;;;;;1.60;1.10;;;12.20;97.00;;;;;;5552849;25;21030;-45
2024/04/17 09:38:47;;;;;;;2.80;1.40;;;12.20;95.00;;;;;;5548077;25;21075;-47
2024/04/17 09:41:17;;;;;;;1.87;1.20;;;12.20;94.90;;;;;;5552647;25;20919;-48
2024/04/17 09:43:49;;;;;;;2.13;0.90;;;12.20;94.50;;;;;;5562599;25;20791;-45
2024/04/17 09:46:18;;;;;;;3.50;1.10;;;12.20;93.50;;;;;;5560730;25;20459;-47
2024/04/17 09:48:53;;;;;;;1.87;1.50;;;12.20;93.60;;;;;;5560069;25;20451;-46
2024/04/17 09:51:25;;;;;;;1.87;1.13;;;12.20;93.40;;;;;;5550266;25;20445;-46
2024/04/17 09:53:58;;;;;;;1.30;1.10;;;12.20;93.20;;;;;;5555613;25;20518;-46
2024/04/17 09:56:26;;;;;;;3.70;1.47;;;12.20;93.10;;;;;;5560966;25;20517;-46
2024/04/17 09:58:57;;;;;;;3.03;1.73;;;12.20;93.60;;;;;;5552195;25;20461;-45
2024/04/17 10:01:36;;;;;;;3.50;2.07;;;12.20;93.70;;;;;;5545757;25;20458;-46
2024/04/17 10:04:07;;;;;;;1.63;1.53;;;12.20;93.70;;;;;;5526535;25;20470;-46
2024/04/17 10:06:43;;;;;;;1.53;1.30;;;12.10;92.20;;;;;;5559893;25;20524;-47
2024/04/17 10:09:15;;;;;;;2.10;1.30;;;12.20;92.00;;;;;;5557006;25;21144;-46
2024/04/17 10:11:42;;;;;;;4.77;1.77;;;12.20;91.80;;;;;;5543986;25;20501;-45
2024/04/17 10:14:15;;;;;;;2.53;1.40;;;12.10;91.90;;;;;;5542772;25;20561;-47
2024/04/17 10:16:42;;;;;;;3.23;1.47;;;12.10;92.00;;;;;;5549737;25;20466;-47
2024/04/17 10:19:14;;;;;;;1.97;1.47;;;12.20;92.00;;;;;;5557684;25;20572;-47
2024/04/17 10:21:46;;;;;;;1.70;1.57;;;12.10;91.50;;;;;;5547563;25;20461;-45
2024/04/17 10:24:16;;;;;;;1.97;1.33;;;12.20;91.70;;;;;;5565234;25;21081;-47
2024/04/17 10:26:43;;;;;;;1.43;1.33;;;12.10;91.80;;;;;;5562015;25;20446;-47
2024/04/17 10:29:17;;;;;;;2.80;1.30;;;12.10;92.00;;;;;;5549540;25;20565;-47
2024/04/17 10:31:57;;;;;;;2.10;1.53;;;12.10;92.10;;;;;;5550957;25;20466;-47
2024/04/17 10:34:28;;;;;;;2.60;1.30;;;12.20;92.30;;;;;;5563344;25;20454;-45
2024/04/17 10:37:02;;;;;;;1.53;1.13;;;12.20;92.40;;;;;;5563603;25;20552;-46
2024/04/17 10:39:32;;;;;;;2.07;1.40;;;12.20;92.50;;;;;;5556842;25;20480;-47
2024/04/17 10:42:00;;;;;;;1.93;1.30;;;12.20;92.60;;;;;;5546172;25;20519;-47
2024/04/17 10:44:30;;;;;;;2.47;1.73;;;12.20;93.10;;;;;;5548182;25;20860;-48
2024/04/17 10:47:03;;;;;;;2.17;1.10;;;12.20;93.20;;;;;;5564667;25;20526;-46
2024/04/17 10:49:38;;;;;;;1.93;1.73;;;12.20;93.60;;;;;;5558419;25;20453;-48
2024/04/17 10:52:11;;;;;;;5.30;2.20;;;12.30;95.20;;;;;;5559297;25;20753;-46
2024/04/17 10:54:38;;;;;;;9.50;1.97;;;12.40;87.80;;;;;;5549963;25;20497;-46
2024/04/17 10:57:08;;;;;;;6.60;2.77;;;12.40;88.20;;;;;;5551823;25;21060;-47
2024/04/17 10:59:36;;;;;;;7.17;1.93;;;12.30;88.50;;;;;;5542259;25;20939;-45
2024/04/17 11:02:06;;;;;;;7.63;2.47;;;12.30;88.60;;;;;;5554901;25;20470;-47
2024/04/17 11:04:33;;;;;;;2.27;1.80;;;12.30;88.80;;;;;;5557755;25;20464;-47
2024/04/17 11:07:04;;;;;;;3.47;2.10;;;12.30;88.90;;;;;;5564389;25;20452;-47
2024/04/17 11:09:34;;;;;;;4.87;1.93;;;12.30;89.10;;;;;;5561720;25;20458;-46
2024/04/17 11:12:05;;;;;;;3.17;1.63;;;12.30;89.00;;;;;;5560741;25;20498;-46
2024/04/17 11:14:32;;;;;;;13.17;2.70;;;12.30;88.40;;;;;;5553696;25;20513;-46
2024/04/17 11:17:02;;;;;;;5.97;2.20;;;12.20;85.20;;;;;;5561746;25;20455;-47
2024/04/17 11:19:29;;;;;;;3.63;1.90;;;12.20;85.40;;;;;;5561791;25;20457;-47
2024/04/17 11:21:59;;;;;;;4.30;2.00;;;12.20;87.10;;;;;;5561093;25;20539;-47
2024/04/17 11:24:27;;;;;;;4.00;1.90;;;12.20;87.50;;;;;;5551946;25;20514;-47
2024/04/17 11:26:59;;;;;;;3.07;1.90;;;12.20;87.70;;;;;;5555074;25;20546;-47
2024/04/17 11:29:26;;;;;;;2.33;1.90;;;12.20;87.80;;;;;;5557947;25;20502;-47
2024/04/17 11:32:09;;;;;;;3.60;1.67;;;12.20;88.00;;;;;;5561985;25;20911;-47
2024/04/17 11:34:36;;;;;;;4.60;2.10;;;12.20;88.10;;;;;;5518463;25;20454;-47
2024/04/17 11:37:07;;;;;;;5.20;1.50;;;12.20;88.10;;;;;;5558710;25;20567;-47
2024/04/17 11:39:36;;;;;;;3.50;1.70;;;12.20;88.40;;;;;;5561296;25;20522;-47
2024/04/17 11:42:12;;;;;;;2.90;1.50;;;12.20;88.10;;;;;;5561431;25;20443;-47
2024/04/17 11:44:43;;;;;;;3.07;2.17;;;12.20;88.20;;;;;;5559298;25;20455;-45
2024/04/17 11:47:12;;;;;;;6.03;2.30;;;12.20;88.40;;;;;;5508449;25;20503;-46
2024/04/17 11:49:43;;;;;;;2.93;1.43;;;12.20;88.40;;;;;;5561197;25;20537;-47
2024/04/17 11:52:12;;;;;;;2.73;1.43;;;12.20;88.40;;;;;;5553035;25;20456;-47
2024/04/17 11:54:43;;;;;;;2.20;1.60;;;12.20;88.50;;;;;;5560329;25;20766;-47
2024/04/17 11:57:13;;;;;;;4.83;1.70;;;12.20;88.60;;;;;;5557000;25;20821;-47
2024/04/17 11:59:46;;;;;;;2.20;1.40;;;12.20;88.70;;;;;;5503648;25;20472;-45
2024/04/17 12:02:14;;;;;;;3.20;1.77;;;12.20;88.70;;;;;;5561383;25;20445;-46
2024/04/17 12:04:44;;;;;;;2.73;1.70;;;12.20;88.80;;;;;;5560691;25;20559;-47
2024/04/17 12:07:12;;;;;;;1.90;1.70;;;12.10;88.90;;;;;;5556656;25;21099;-45
2024/04/17 12:09:46;;;;;;;2.37;1.50;;;12.20;88.70;;;;;;5559201;25;20492;-46
2024/04/17 12:12:17;;;;;;;2.43;1.43;;;12.10;88.80;;;;;;5555531;25;20454;-45
2024/04/17 12:14:46;;;;;;;4.90;1.30;;;12.10;88.90;;;;;;5549850;25;20453;-47
2024/04/17 12:17:14;;;;;;;3.00;1.37;;;12.10;88.70;;;;;;5565418;25;20452;-48
2024/04/17 12:19:44;;;;;;;2.93;1.30;;;12.10;87.60;;;;;;5558951;25;20466;-47
2024/04/17 12:22:12;;;;;;;1.63;1.17;;;12.10;87.00;;;;;;5558596;25;20442;-46
2024/04/17 12:27:30;;;;;;;3.73;1.87;;;12.00;88.50;;;;;;5555790;25;20550;-48
2024/04/17 12:30:03;;;;;;;2.53;1.40;;;12.00;90.00;;;;;;5550892;25;20463;-49
2024/04/17 12:32:33;;;;;;;1.73;1.30;;;12.00;90.90;;;;;;5555836;25;20519;-48
2024/04/17 12:35:04;;;;;;;4.07;1.70;;;12.10;91.30;;;;;;5560583;25;20461;-47
2024/04/17 12:37:38;;;;;;;2.20;1.00;;;12.10;92.00;;;;;;5556401;25;20542;-46
2024/04/17 12:40:09;;;;;;;2.83;1.30;;;12.10;92.30;;;;;;5521627;25;20464;-45
2024/04/17 12:42:41;;;;;;;1.77;1.07;;;12.10;93.00;;;;;;5560148;25;20553;-48
2024/04/17 12:45:11;;;;;;;3.30;1.50;;;12.10;93.30;;;;;;5555511;25;21013;-45
2024/04/17 12:47:41;;;;;;;3.60;1.60;;;12.20;93.70;;;;;;5561320;25;20608;-48
2024/04/17 12:50:12;;;;;;;5.50;1.37;;;12.20;94.10;;;;;;5557320;25;20510;-47
2024/04/17 12:52:41;;;;;;;1.20;1.00;;;12.20;94.50;;;;;;5560066;25;21240;-48
2024/04/17 12:55:11;;;;;;;3.47;1.87;;;12.20;94.50;;;;;;5568813;25;20502;-46
2024/04/17 12:57:45;;;;;;;2.13;1.30;;;12.20;94.50;;;;;;5551426;25;21009;-46
2024/04/17 13:00:15;;;;;;;3.43;1.30;;;12.20;95.00;;;;;;5550499;25;20856;-47
2024/04/17 13:02:43;;;;;;;2.50;1.43;;;12.20;94.80;;;;;;5560410;25;20780;-47